sensor_id;sensor_type;location;lat;lon;timestamp;pressure;altitude;pressure_sealevel;temperature;humidity
14041;BME280;7095;51.388;6.196;2022-07-29T00:00:06;53206.88;;;-145.32;60.40
14041;BME280;7095;51.388;6.196;2022-07-29T00:02:35;53210.84;;;-145.32;60.94
14041;BME280;7095;51.388;6.196;2022-07-29T00:05:06;53200.91;;;-145.32;60.80
14041;BME280;7095;51.388;6.196;2022-07-29T00:07:36;53206.88;;;-145.32;60.62
14041;BME280;7095;51.388;6.196;2022-07-29T00:10:05;53181.03;;;-145.32;60.22
14041;BME280;7095;51.388;6.196;2022-07-29T00:12:33;53216.81;;;-145.32;59.99
14041;BME280;7095;51.388;6.196;2022-07-29T00:15:04;53185.00;;;-145.32;59.79
14041;BME280;7095;51.388;6.196;2022-07-29T00:17:33;53188.97;;;-145.32;59.00
14041;BME280;7095;51.388;6.196;2022-07-29T00:20:01;53181.03;;;-145.32;59.17
14041;BME280;7095;51.388;6.196;2022-07-29T00:22:31;53188.97;;;-145.32;59.42
14041;BME280;7095;51.388;6.196;2022-07-29T00:25:03;53192.94;;;-145.32;59.43
14041;BME280;7095;51.388;6.196;2022-07-29T00:27:32;53194.94;;;-145.32;59.24
14041;BME280;7095;51.388;6.196;2022-07-29T00:30:00;53214.81;;;-145.32;58.87
14041;BME280;7095;51.388;6.196;2022-07-29T00:32:29;53206.88;;;-145.32;58.59
14041;BME280;7095;51.388;6.196;2022-07-29T00:34:58;53218.81;;;-145.32;58.99
14041;BME280;7095;51.388;6.196;2022-07-29T00:37:45;53210.84;;;-145.32;58.88
14041;BME280;7095;51.388;6.196;2022-07-29T00:40:14;53194.94;;;-145.32;58.35
14041;BME280;7095;51.388;6.196;2022-07-29T00:42:43;53210.84;;;-145.32;58.00
14041;BME280;7095;51.388;6.196;2022-07-29T00:45:12;53210.84;;;-145.32;58.00
14041;BME280;7095;51.388;6.196;2022-07-29T00:47:41;53196.94;;;-145.32;58.24
14041;BME280;7095;51.388;6.196;2022-07-29T00:50:12;53214.81;;;-145.32;58.19
14041;BME280;7095;51.388;6.196;2022-07-29T00:52:42;53181.03;;;-145.32;57.95
14041;BME280;7095;51.388;6.196;2022-07-29T00:55:14;53200.91;;;-145.32;57.19
14041;BME280;7095;51.388;6.196;2022-07-29T00:57:44;53226.75;;;-145.32;57.07
14041;BME280;7095;51.388;6.196;2022-07-29T01:00:16;53212.84;;;-145.32;57.33
14041;BME280;7095;51.388;6.196;2022-07-29T01:02:48;53236.69;;;-145.32;57.40
14041;BME280;7095;51.388;6.196;2022-07-29T01:05:18;53236.69;;;-145.32;58.43
14041;BME280;7095;51.388;6.196;2022-07-29T01:07:49;53224.75;;;-145.32;59.32
14041;BME280;7095;51.388;6.196;2022-07-29T01:10:21;53202.91;;;-145.32;58.58
14041;BME280;7095;51.388;6.196;2022-07-29T01:12:54;53208.84;;;-145.32;58.49
14041;BME280;7095;51.388;6.196;2022-07-29T01:15:24;53214.81;;;-145.32;58.48
14041;BME280;7095;51.388;6.196;2022-07-29T01:18:00;53214.81;;;-145.32;59.06
14041;BME280;7095;51.388;6.196;2022-07-29T01:20:58;53208.84;;;-145.32;59.77
14041;BME280;7095;51.388;6.196;2022-07-29T01:23:44;53206.88;;;-145.32;59.03
14041;BME280;7095;51.388;6.196;2022-07-29T01:26:29;53206.88;;;-145.32;62.77
14041;BME280;7095;51.388;6.196;2022-07-29T01:29:07;53204.88;;;-145.32;61.71
14041;BME280;7095;51.388;6.196;2022-07-29T01:31:42;53234.69;;;-145.32;62.28
14041;BME280;7095;51.388;6.196;2022-07-29T01:34:34;53216.81;;;-145.32;66.11
14041;BME280;7095;51.388;6.196;2022-07-29T01:37:15;53220.78;;;-145.32;71.21
14041;BME280;7095;51.388;6.196;2022-07-29T01:39:49;53224.75;;;-145.32;75.28
14041;BME280;7095;51.388;6.196;2022-07-29T01:42:23;53244.63;;;-145.32;79.89
14041;BME280;7095;51.388;6.196;2022-07-29T01:44:59;53222.78;;;-145.32;81.45
14041;BME280;7095;51.388;6.196;2022-07-29T01:47:34;53228.75;;;-145.32;82.66
14041;BME280;7095;51.388;6.196;2022-07-29T01:50:10;53228.75;;;-145.32;82.61
14041;BME280;7095;51.388;6.196;2022-07-29T01:52:44;53256.56;;;-145.32;83.14
14041;BME280;7095;51.388;6.196;2022-07-29T01:55:16;53202.91;;;-145.32;85.36
14041;BME280;7095;51.388;6.196;2022-07-29T01:57:49;53232.72;;;-145.32;87.73
14041;BME280;7095;51.388;6.196;2022-07-29T02:00:20;53212.84;;;-145.32;89.66
14041;BME280;7095;51.388;6.196;2022-07-29T02:02:50;53216.81;;;-145.32;90.16
14041;BME280;7095;51.388;6.196;2022-07-29T02:05:22;53228.75;;;-145.32;92.81
14041;BME280;7095;51.388;6.196;2022-07-29T02:07:53;53232.72;;;-145.32;100.00
14041;BME280;7095;51.388;6.196;2022-07-29T02:10:25;53240.66;;;-145.32;100.00
14041;BME280;7095;51.388;6.196;2022-07-29T02:12:56;53278.44;;;-145.32;100.00
14041;BME280;7095;51.388;6.196;2022-07-29T02:15:29;53278.44;;;-145.32;100.00
14041;BME280;7095;51.388;6.196;2022-07-29T02:18:02;53274.47;;;-145.32;100.00
14041;BME280;7095;51.388;6.196;2022-07-29T02:20:33;53298.31;;;-145.32;100.00
14041;BME280;7095;51.388;6.196;2022-07-29T02:23:03;53276.44;;;-145.32;100.00
14041;BME280;7095;51.388;6.196;2022-07-29T02:25:32;53292.34;;;-145.32;100.00
14041;BME280;7095;51.388;6.196;2022-07-29T02:28:05;53290.38;;;-145.32;100.00
14041;BME280;7095;51.388;6.196;2022-07-29T02:30:39;53290.38;;;-145.32;100.00
14041;BME280;7095;51.388;6.196;2022-07-29T02:33:10;53304.28;;;-145.32;100.00
14041;BME280;7095;51.388;6.196;2022-07-29T02:35:40;53308.25;;;-145.32;100.00
14041;BME280;7095;51.388;6.196;2022-07-29T02:38:12;53308.25;;;-145.32;100.00
14041;BME280;7095;51.388;6.196;2022-07-29T02:41:00;53284.41;;;-145.32;100.00
14041;BME280;7095;51.388;6.196;2022-07-29T02:43:30;53296.31;;;-145.32;100.00
14041;BME280;7095;51.388;6.196;2022-07-29T02:46:02;53280.41;;;-145.32;100.00
14041;BME280;7095;51.388;6.196;2022-07-29T02:48:57;53282.41;;;-145.32;100.00
14041;BME280;7095;51.388;6.196;2022-07-29T02:51:32;53326.16;;;-145.32;100.00
14041;BME280;7095;51.388;6.196;2022-07-29T02:54:14;53310.25;;;-145.32;100.00
14041;BME280;7095;51.388;6.196;2022-07-29T02:56:46;53312.22;;;-145.32;100.00
14041;BME280;7095;51.388;6.196;2022-07-29T02:59:20;53288.38;;;-145.32;100.00
14041;BME280;7095;51.388;6.196;2022-07-29T03:01:52;53304.28;;;-145.32;100.00
14041;BME280;7095;51.388;6.196;2022-07-29T03:04:24;53328.13;;;-145.32;100.00
14041;BME280;7095;51.388;6.196;2022-07-29T03:06:58;53334.09;;;-145.32;100.00
14041;BME280;7095;51.388;6.196;2022-07-29T03:09:28;53316.22;;;-145.32;100.00
14041;BME280;7095;51.388;6.196;2022-07-29T03:11:58;53316.22;;;-145.32;100.00
14041;BME280;7095;51.388;6.196;2022-07-29T03:14:27;53353.97;;;-145.32;100.00
14041;BME280;7095;51.388;6.196;2022-07-29T03:16:58;53318.19;;;-145.32;100.00
14041;BME280;7095;51.388;6.196;2022-07-29T03:19:27;53371.88;;;-145.32;100.00
14041;BME280;7095;51.388;6.196;2022-07-29T03:21:56;53326.16;;;-145.32;100.00
14041;BME280;7095;51.388;6.196;2022-07-29T03:24:30;53363.91;;;-145.32;100.00
14041;BME280;7095;51.388;6.196;2022-07-29T03:26:59;53342.06;;;-145.32;100.00
14041;BME280;7095;51.388;6.196;2022-07-29T03:29:28;53353.97;;;-145.32;100.00
14041;BME280;7095;51.388;6.196;2022-07-29T03:32:03;53353.97;;;-145.32;100.00
14041;BME280;7095;51.388;6.196;2022-07-29T03:34:35;53336.09;;;-145.32;100.00
14041;BME280;7095;51.388;6.196;2022-07-29T03:37:05;53340.06;;;-145.32;100.00
14041;BME280;7095;51.388;6.196;2022-07-29T03:39:38;53328.13;;;-145.32;100.00
14041;BME280;7095;51.388;6.196;2022-07-29T03:42:10;53355.97;;;-145.32;100.00
14041;BME280;7095;51.388;6.196;2022-07-29T03:44:43;53367.91;;;-145.32;100.00
14041;BME280;7095;51.388;6.196;2022-07-29T03:47:15;53361.94;;;-145.32;100.00
14041;BME280;7095;51.388;6.196;2022-07-29T03:49:48;53375.84;;;-145.32;100.00
14041;BME280;7095;51.388;6.196;2022-07-29T03:52:18;53367.91;;;-145.32;100.00
14041;BME280;7095;51.388;6.196;2022-07-29T03:54:47;53379.81;;;-145.32;100.00
14041;BME280;7095;51.388;6.196;2022-07-29T03:57:16;53369.88;;;-145.32;100.00
14041;BME280;7095;51.388;6.196;2022-07-29T03:59:49;53361.94;;;-145.32;100.00
14041;BME280;7095;51.388;6.196;2022-07-29T04:02:21;53340.06;;;-145.32;100.00
14041;BME280;7095;51.388;6.196;2022-07-29T04:04:56;53375.84;;;-145.32;100.00
14041;BME280;7095;51.388;6.196;2022-07-29T04:07:24;53355.97;;;-145.32;100.00
14041;BME280;7095;51.388;6.196;2022-07-29T04:09:53;53395.72;;;-145.32;100.00
14041;BME280;7095;51.388;6.196;2022-07-29T04:12:22;53379.81;;;-145.32;100.00
14041;BME280;7095;51.388;6.196;2022-07-29T04:14:50;53371.88;;;-145.32;100.00
14041;BME280;7095;51.388;6.196;2022-07-29T04:17:20;53387.78;;;-145.32;100.00
14041;BME280;7095;51.388;6.196;2022-07-29T04:19:49;53361.94;;;-145.32;100.00
14041;BME280;7095;51.388;6.196;2022-07-29T04:22:17;53383.78;;;-145.32;100.00
14041;BME280;7095;51.388;6.196;2022-07-29T04:24:45;53399.69;;;-145.32;100.00
14041;BME280;7095;51.388;6.196;2022-07-29T04:27:14;53399.69;;;-145.32;100.00
14041;BME280;7095;51.388;6.196;2022-07-29T04:29:42;53387.78;;;-145.32;100.00
14041;BME280;7095;51.388;6.196;2022-07-29T04:32:25;53387.78;;;-145.32;100.00
14041;BME280;7095;51.388;6.196;2022-07-29T04:34:54;53387.78;;;-145.32;100.00
14041;BME280;7095;51.388;6.196;2022-07-29T04:37:23;53413.63;;;-145.32;100.00
14041;BME280;7095;51.388;6.196;2022-07-29T04:39:52;53387.78;;;-145.32;100.00
14041;BME280;7095;51.388;6.196;2022-07-29T04:42:20;53367.91;;;-145.32;100.00
14041;BME280;7095;51.388;6.196;2022-07-29T04:44:53;53391.75;;;-145.32;100.00
14041;BME280;7095;51.388;6.196;2022-07-29T04:47:22;53399.69;;;-145.32;100.00
14041;BME280;7095;51.388;6.196;2022-07-29T04:49:52;53403.69;;;-145.32;100.00
14041;BME280;7095;51.388;6.196;2022-07-29T04:52:21;53407.66;;;-145.32;100.00
14041;BME280;7095;51.388;6.196;2022-07-29T04:54:50;53403.69;;;-145.32;100.00
14041;BME280;7095;51.388;6.196;2022-07-29T04:57:18;53423.56;;;-145.32;100.00
14041;BME280;7095;51.388;6.196;2022-07-29T04:59:47;53407.66;;;-145.32;100.00
14041;BME280;7095;51.388;6.196;2022-07-29T05:02:16;53399.69;;;-145.32;100.00
14041;BME280;7095;51.388;6.196;2022-07-29T05:04:45;53411.63;;;-145.32;100.00
14041;BME280;7095;51.388;6.196;2022-07-29T05:07:14;53437.47;;;-145.32;100.00
14041;BME280;7095;51.388;6.196;2022-07-29T05:09:43;53391.75;;;-145.32;100.00
14041;BME280;7095;51.388;6.196;2022-07-29T05:12:12;53415.59;;;-145.32;100.00
14041;BME280;7095;51.388;6.196;2022-07-29T05:14:41;53433.50;;;-145.32;100.00
14041;BME280;7095;51.388;6.196;2022-07-29T05:17:10;53453.38;;;-145.32;100.00
14041;BME280;7095;51.388;6.196;2022-07-29T05:19:39;53433.50;;;-145.32;100.00
14041;BME280;7095;51.388;6.196;2022-07-29T05:22:07;53441.44;;;-145.32;100.00
14041;BME280;7095;51.388;6.196;2022-07-29T05:24:37;53447.41;;;-145.32;100.00
14041;BME280;7095;51.388;6.196;2022-07-29T05:27:07;53431.50;;;-145.32;100.00
14041;BME280;7095;51.388;6.196;2022-07-29T05:29:36;53437.47;;;-145.32;100.00
14041;BME280;7095;51.388;6.196;2022-07-29T05:32:11;53463.31;;;-145.32;100.00
14041;BME280;7095;51.388;6.196;2022-07-29T05:34:40;53467.28;;;-145.32;100.00
14041;BME280;7095;51.388;6.196;2022-07-29T05:37:18;53445.44;;;-145.32;100.00
14041;BME280;7095;51.388;6.196;2022-07-29T05:39:48;53415.59;;;-145.32;100.00
14041;BME280;7095;51.388;6.196;2022-07-29T05:42:23;53453.38;;;-145.32;100.00
14041;BME280;7095;51.388;6.196;2022-07-29T05:44:51;53437.47;;;-145.32;100.00
14041;BME280;7095;51.388;6.196;2022-07-29T05:47:20;53453.38;;;-145.32;100.00
14041;BME280;7095;51.388;6.196;2022-07-29T05:49:49;53439.47;;;-145.32;100.00
14041;BME280;7095;51.388;6.196;2022-07-29T05:52:18;53487.19;;;-145.32;100.00
14041;BME280;7095;51.388;6.196;2022-07-29T05:54:51;53469.28;;;-145.32;100.00
14041;BME280;7095;51.388;6.196;2022-07-29T05:57:23;53495.13;;;-145.32;100.00
14041;BME280;7095;51.388;6.196;2022-07-29T05:59:51;53467.28;;;-145.32;100.00
14041;BME280;7095;51.388;6.196;2022-07-29T06:02:21;53431.50;;;-145.32;100.00
14041;BME280;7095;51.388;6.196;2022-07-29T06:04:50;53477.22;;;-145.32;100.00
14041;BME280;7095;51.388;6.196;2022-07-29T06:07:18;53479.22;;;-145.32;100.00
14041;BME280;7095;51.388;6.196;2022-07-29T06:09:47;53473.25;;;-145.32;100.00
14041;BME280;7095;51.388;6.196;2022-07-29T06:12:17;53471.28;;;-145.32;100.00
14041;BME280;7095;51.388;6.196;2022-07-29T06:14:46;53445.44;;;-145.32;100.00
14041;BME280;7095;51.388;6.196;2022-07-29T06:17:20;53479.22;;;-145.32;100.00
14041;BME280;7095;51.388;6.196;2022-07-29T06:19:48;53469.28;;;-145.32;100.00
14041;BME280;7095;51.388;6.196;2022-07-29T06:22:17;53471.28;;;-145.32;100.00
14041;BME280;7095;51.388;6.196;2022-07-29T06:24:45;53457.34;;;-145.32;100.00
14041;BME280;7095;51.388;6.196;2022-07-29T06:27:14;53479.22;;;-145.32;100.00
14041;BME280;7095;51.388;6.196;2022-07-29T06:29:44;53473.25;;;-145.32;100.00
14041;BME280;7095;51.388;6.196;2022-07-29T06:32:12;53491.16;;;-145.32;100.00
14041;BME280;7095;51.388;6.196;2022-07-29T06:34:41;53461.31;;;-145.32;100.00
14041;BME280;7095;51.388;6.196;2022-07-29T06:37:14;53497.13;;;-145.32;100.00
14041;BME280;7095;51.388;6.196;2022-07-29T06:39:45;53497.13;;;-145.32;100.00
14041;BME280;7095;51.388;6.196;2022-07-29T06:42:13;53481.22;;;-145.32;100.00
14041;BME280;7095;51.388;6.196;2022-07-29T06:44:43;53507.06;;;-145.32;100.00
14041;BME280;7095;51.388;6.196;2022-07-29T06:47:12;53499.09;;;-145.32;100.00
14041;BME280;7095;51.388;6.196;2022-07-29T06:49:40;53517.00;;;-145.32;100.00
14041;BME280;7095;51.388;6.196;2022-07-29T06:52:09;53526.94;;;-145.32;100.00
14041;BME280;7095;51.388;6.196;2022-07-29T06:54:37;53507.06;;;-145.32;100.00
14041;BME280;7095;51.388;6.196;2022-07-29T06:57:07;53513.03;;;-145.32;100.00
14041;BME280;7095;51.388;6.196;2022-07-29T06:59:35;53503.06;;;-145.32;100.00
14041;BME280;7095;51.388;6.196;2022-07-29T07:02:06;53505.06;;;-145.32;100.00
14041;BME280;7095;51.388;6.196;2022-07-29T07:04:34;53471.28;;;-145.32;100.00
14041;BME280;7095;51.388;6.196;2022-07-29T07:07:03;53459.34;;;-145.32;100.00
14041;BME280;7095;51.388;6.196;2022-07-29T07:09:31;53459.34;;;-145.32;100.00
14041;BME280;7095;51.388;6.196;2022-07-29T07:12:07;53483.19;;;-145.32;100.00
14041;BME280;7095;51.388;6.196;2022-07-29T07:14:35;53483.19;;;-145.32;100.00
14041;BME280;7095;51.388;6.196;2022-07-29T07:17:05;53485.19;;;-145.32;100.00
14041;BME280;7095;51.388;6.196;2022-07-29T07:19:34;53465.31;;;-145.32;100.00
14041;BME280;7095;51.388;6.196;2022-07-29T07:22:03;53477.22;;;-145.32;100.00
14041;BME280;7095;51.388;6.196;2022-07-29T07:24:32;53473.25;;;-145.32;100.00
14041;BME280;7095;51.388;6.196;2022-07-29T07:27:00;53461.31;;;-145.32;100.00
14041;BME280;7095;51.388;6.196;2022-07-29T07:29:29;53435.47;;;-145.32;100.00
14041;BME280;7095;51.388;6.196;2022-07-29T07:31:58;53443.44;;;-145.32;100.00
14041;BME280;7095;51.388;6.196;2022-07-29T07:34:28;53435.47;;;-145.32;100.00
14041;BME280;7095;51.388;6.196;2022-07-29T07:36:58;53443.44;;;-145.32;100.00
14041;BME280;7095;51.388;6.196;2022-07-29T07:39:26;53423.56;;;-145.32;100.00
14041;BME280;7095;51.388;6.196;2022-07-29T07:41:55;53437.47;;;-145.32;100.00
14041;BME280;7095;51.388;6.196;2022-07-29T07:44:24;53451.38;;;-145.32;100.00
14041;BME280;7095;51.388;6.196;2022-07-29T07:46:52;53435.47;;;-145.32;100.00
14041;BME280;7095;51.388;6.196;2022-07-29T07:49:21;53403.69;;;-145.32;100.00
14041;BME280;7095;51.388;6.196;2022-07-29T07:51:51;53411.63;;;-145.32;100.00
14041;BME280;7095;51.388;6.196;2022-07-29T07:54:20;53417.59;;;-145.32;100.00
14041;BME280;7095;51.388;6.196;2022-07-29T07:56:48;53397.72;;;-145.32;100.00
14041;BME280;7095;51.388;6.196;2022-07-29T07:59:19;53425.53;;;-145.32;100.00
14041;BME280;7095;51.388;6.196;2022-07-29T08:01:48;53407.66;;;-145.32;100.00
14041;BME280;7095;51.388;6.196;2022-07-29T08:04:22;53403.69;;;-145.32;100.00
14041;BME280;7095;51.388;6.196;2022-07-29T08:06:57;53427.53;;;-145.32;100.00
14041;BME280;7095;51.388;6.196;2022-07-29T08:09:27;53449.41;;;-145.32;100.00
14041;BME280;7095;51.388;6.196;2022-07-29T08:11:57;53399.69;;;-145.32;100.00
14041;BME280;7095;51.388;6.196;2022-07-29T08:14:26;53405.66;;;-145.32;100.00
14041;BME280;7095;51.388;6.196;2022-07-29T08:16:54;53383.78;;;-145.32;100.00
14041;BME280;7095;51.388;6.196;2022-07-29T08:19:23;53411.63;;;-145.32;100.00
14041;BME280;7095;51.388;6.196;2022-07-29T08:21:52;53427.53;;;-145.32;100.00
14041;BME280;7095;51.388;6.196;2022-07-29T08:24:23;53423.56;;;-145.32;100.00
14041;BME280;7095;51.388;6.196;2022-07-29T08:27:10;53449.41;;;-145.32;100.00
14041;BME280;7095;51.388;6.196;2022-07-29T08:29:58;53435.47;;;-145.32;100.00
14041;BME280;7095;51.388;6.196;2022-07-29T08:32:28;53431.50;;;-145.32;100.00
14041;BME280;7095;51.388;6.196;2022-07-29T08:35:18;53463.31;;;-145.32;100.00
14041;BME280;7095;51.388;6.196;2022-07-29T08:37:46;53431.50;;;-145.32;100.00
14041;BME280;7095;51.388;6.196;2022-07-29T08:40:16;53443.44;;;-145.32;100.00
14041;BME280;7095;51.388;6.196;2022-07-29T08:42:45;53423.56;;;-145.32;100.00
14041;BME280;7095;51.388;6.196;2022-07-29T08:45:13;53431.50;;;-145.32;100.00
14041;BME280;7095;51.388;6.196;2022-07-29T08:47:43;53435.47;;;-145.32;100.00
14041;BME280;7095;51.388;6.196;2022-07-29T08:50:13;53453.38;;;-145.32;100.00
14041;BME280;7095;51.388;6.196;2022-07-29T08:52:42;53443.44;;;-145.32;100.00
14041;BME280;7095;51.388;6.196;2022-07-29T08:55:11;53443.44;;;-145.32;100.00
14041;BME280;7095;51.388;6.196;2022-07-29T08:57:49;53455.38;;;-145.32;100.00
14041;BME280;7095;51.388;6.196;2022-07-29T09:00:24;53467.28;;;-145.32;100.00
14041;BME280;7095;51.388;6.196;2022-07-29T09:02:56;53435.47;;;-145.32;100.00
14041;BME280;7095;51.388;6.196;2022-07-29T09:05:26;53471.28;;;-145.32;100.00
14041;BME280;7095;51.388;6.196;2022-07-29T09:07:55;53411.63;;;-145.32;100.00
14041;BME280;7095;51.388;6.196;2022-07-29T09:10:24;53447.41;;;-145.32;100.00
14041;BME280;7095;51.388;6.196;2022-07-29T09:12:55;53475.25;;;-145.32;100.00
14041;BME280;7095;51.388;6.196;2022-07-29T09:15:24;53425.53;;;-145.32;100.00
14041;BME280;7095;51.388;6.196;2022-07-29T09:17:53;53457.34;;;-145.32;100.00
14041;BME280;7095;51.388;6.196;2022-07-29T09:20:22;53411.63;;;-145.32;100.00
14041;BME280;7095;51.388;6.196;2022-07-29T09:22:52;53443.44;;;-145.32;100.00
14041;BME280;7095;51.388;6.196;2022-07-29T09:25:33;53425.53;;;-145.32;100.00
14041;BME280;7095;51.388;6.196;2022-07-29T09:28:07;53419.59;;;-145.32;100.00
14041;BME280;7095;51.388;6.196;2022-07-29T09:30:49;53391.75;;;-145.32;100.00
14041;BME280;7095;51.388;6.196;2022-07-29T09:33:18;53367.91;;;-145.32;100.00
14041;BME280;7095;51.388;6.196;2022-07-29T09:35:59;53355.97;;;-145.32;100.00
14041;BME280;7095;51.388;6.196;2022-07-29T09:38:28;53338.06;;;-145.32;100.00
14041;BME280;7095;51.388;6.196;2022-07-29T09:40:57;53348.00;;;-145.32;100.00
14041;BME280;7095;51.388;6.196;2022-07-29T09:43:33;53324.16;;;-145.32;100.00
14041;BME280;7095;51.388;6.196;2022-07-29T09:46:12;53367.91;;;-145.32;100.00
14041;BME280;7095;51.388;6.196;2022-07-29T09:48:40;53344.03;;;-145.32;100.00
14041;BME280;7095;51.388;6.196;2022-07-29T09:51:17;53336.09;;;-145.32;100.00
14041;BME280;7095;51.388;6.196;2022-07-29T09:53:52;53316.22;;;-145.32;100.00
14041;BME280;7095;51.388;6.196;2022-07-29T09:56:38;53312.22;;;-145.32;100.00
14041;BME280;7095;51.388;6.196;2022-07-29T09:59:09;53324.16;;;-145.32;100.00
14041;BME280;7095;51.388;6.196;2022-07-29T10:01:38;53276.44;;;-145.32;100.00
14041;BME280;7095;51.388;6.196;2022-07-29T10:04:07;53280.41;;;-145.32;100.00
14041;BME280;7095;51.388;6.196;2022-07-29T10:06:55;53288.38;;;-145.32;100.00
14041;BME280;7095;51.388;6.196;2022-07-29T10:09:31;53308.25;;;-145.32;100.00
14041;BME280;7095;51.388;6.196;2022-07-29T10:12:07;53288.38;;;-145.32;100.00
14041;BME280;7095;51.388;6.196;2022-07-29T10:14:39;53292.34;;;-145.32;100.00
14041;BME280;7095;51.388;6.196;2022-07-29T10:17:09;53282.41;;;-145.32;100.00
14041;BME280;7095;51.388;6.196;2022-07-29T10:19:38;53294.34;;;-145.32;100.00
14041;BME280;7095;51.388;6.196;2022-07-29T10:22:09;53268.50;;;-145.32;100.00
14041;BME280;7095;51.388;6.196;2022-07-29T10:24:39;53258.56;;;-145.32;100.00
14041;BME280;7095;51.388;6.196;2022-07-29T10:27:08;53244.63;;;-145.32;100.00
14041;BME280;7095;51.388;6.196;2022-07-29T10:29:38;53280.41;;;-145.32;100.00
14041;BME280;7095;51.388;6.196;2022-07-29T10:32:14;53264.53;;;-145.32;100.00
14041;BME280;7095;51.388;6.196;2022-07-29T10:34:57;53248.63;;;-145.32;100.00
14041;BME280;7095;51.388;6.196;2022-07-29T10:37:37;53244.63;;;-145.32;100.00
14041;BME280;7095;51.388;6.196;2022-07-29T10:40:20;53244.63;;;-145.32;100.00
14041;BME280;7095;51.388;6.196;2022-07-29T10:43:19;53226.75;;;-145.32;100.00
14041;BME280;7095;51.388;6.196;2022-07-29T10:45:59;53264.53;;;-145.32;100.00
14041;BME280;7095;51.388;6.196;2022-07-29T10:48:28;53256.56;;;-145.32;100.00
14041;BME280;7095;51.388;6.196;2022-07-29T10:50:58;53236.69;;;-145.32;100.00
14041;BME280;7095;51.388;6.196;2022-07-29T10:53:47;53214.81;;;-145.32;100.00
14041;BME280;7095;51.388;6.196;2022-07-29T10:56:24;53206.88;;;-145.32;100.00
14041;BME280;7095;51.388;6.196;2022-07-29T10:59:24;53222.78;;;-145.32;100.00
14041;BME280;7095;51.388;6.196;2022-07-29T11:02:42;53212.84;;;-145.32;100.00
14041;BME280;7095;51.388;6.196;2022-07-29T11:05:13;53212.84;;;-145.32;100.00
14041;BME280;7095;51.388;6.196;2022-07-29T11:08:19;53200.91;;;-145.32;100.00
14041;BME280;7095;51.388;6.196;2022-07-29T11:14:10;53192.94;;;-145.32;100.00
14041;BME280;7095;51.388;6.196;2022-07-29T11:17:04;53177.06;;;-145.32;100.00
14041;BME280;7095;51.388;6.196;2022-07-29T11:19:35;53185.00;;;-145.32;100.00
14041;BME280;7095;51.388;6.196;2022-07-29T11:22:09;53159.16;;;-145.32;100.00
14041;BME280;7095;51.388;6.196;2022-07-29T11:24:42;53177.06;;;-145.32;100.00
14041;BME280;7095;51.388;6.196;2022-07-29T11:27:18;53185.00;;;-145.32;100.00
14041;BME280;7095;51.388;6.196;2022-07-29T11:29:52;53165.13;;;-145.32;100.00
14041;BME280;7095;51.388;6.196;2022-07-29T11:32:24;53153.19;;;-145.32;100.00
14041;BME280;7095;51.388;6.196;2022-07-29T11:35:13;53141.28;;;-145.32;100.00
14041;BME280;7095;51.388;6.196;2022-07-29T11:38:23;53167.13;;;-145.32;100.00
14041;BME280;7095;51.388;6.196;2022-07-29T11:41:24;53141.28;;;-145.32;100.00
14041;BME280;7095;51.388;6.196;2022-07-29T11:43:54;53143.25;;;-145.32;100.00
14041;BME280;7095;51.388;6.196;2022-07-29T11:46:45;53131.34;;;-145.32;100.00
14041;BME280;7095;51.388;6.196;2022-07-29T11:49:21;53139.28;;;-145.32;100.00
14041;BME280;7095;51.388;6.196;2022-07-29T11:51:59;53117.41;;;-145.32;100.00
14041;BME280;7095;51.388;6.196;2022-07-29T11:54:31;53141.28;;;-145.32;100.00
14041;BME280;7095;51.388;6.196;2022-07-29T11:57:21;53137.28;;;-145.32;100.00
14041;BME280;7095;51.388;6.196;2022-07-29T12:00:05;53157.19;;;-145.32;100.00
14041;BME280;7095;51.388;6.196;2022-07-29T12:02:40;53123.38;;;-145.32;100.00
14041;BME280;7095;51.388;6.196;2022-07-29T12:05:19;53119.41;;;-145.32;100.00
14041;BME280;7095;51.388;6.196;2022-07-29T12:08:08;53129.34;;;-145.32;100.00
14041;BME280;7095;51.388;6.196;2022-07-29T12:10:41;53123.38;;;-145.32;100.00
14041;BME280;7095;51.388;6.196;2022-07-29T12:13:10;53115.44;;;-145.32;100.00
14041;BME280;7095;51.388;6.196;2022-07-29T12:15:39;53141.28;;;-145.32;95.17
14041;BME280;7095;51.388;6.196;2022-07-29T12:18:14;53125.38;;;-145.32;93.65
14041;BME280;7095;51.388;6.196;2022-07-29T12:20:46;53113.44;;;-145.32;85.00
14041;BME280;7095;51.388;6.196;2022-07-29T12:23:16;53137.28;;;-145.32;88.69
14041;BME280;7095;51.388;6.196;2022-07-29T12:25:44;53109.47;;;-145.32;87.85
14041;BME280;7095;51.388;6.196;2022-07-29T12:28:17;53087.59;;;-145.32;87.16
14041;BME280;7095;51.388;6.196;2022-07-29T12:30:54;53055.78;;;-145.32;80.61
14041;BME280;7095;51.388;6.196;2022-07-29T12:33:23;53107.47;;;-145.32;78.67
14041;BME280;7095;51.388;6.196;2022-07-29T12:35:56;53081.63;;;-145.32;69.14
14041;BME280;7095;51.388;6.196;2022-07-29T12:38:40;53103.50;;;-145.32;71.59
14041;BME280;7095;51.388;6.196;2022-07-29T12:41:08;53039.91;;;-145.32;71.67
14041;BME280;7095;51.388;6.196;2022-07-29T12:43:37;53133.31;;;-145.32;66.90
14041;BME280;7095;51.388;6.196;2022-07-29T12:46:15;53089.59;;;-145.32;55.07
14041;BME280;7095;51.388;6.196;2022-07-29T12:48:44;53105.50;;;-145.32;57.73
14041;BME280;7095;51.388;6.196;2022-07-29T12:51:15;53115.44;;;-145.32;55.57
14041;BME280;7095;51.388;6.196;2022-07-29T12:54:02;53097.53;;;-145.32;49.48
14041;BME280;7095;51.388;6.196;2022-07-29T12:56:31;53069.72;;;-145.32;56.91
14041;BME280;7095;51.388;6.196;2022-07-29T12:59:14;53089.59;;;-145.32;52.46
14041;BME280;7095;51.388;6.196;2022-07-29T13:01:43;53061.75;;;-145.32;53.25
14041;BME280;7095;51.388;6.196;2022-07-29T13:04:24;53045.84;;;-145.32;46.74
14041;BME280;7095;51.388;6.196;2022-07-29T13:07:04;53081.63;;;-145.32;45.35
14041;BME280;7095;51.388;6.196;2022-07-29T13:09:41;53065.72;;;-145.32;46.16
14041;BME280;7095;51.388;6.196;2022-07-29T13:12:13;53085.63;;;-145.32;48.06
14041;BME280;7095;51.388;6.196;2022-07-29T13:14:45;53087.59;;;-145.32;46.81